sensor_id;sensor_type;location;lat;lon;timestamp;pressure;altitude;pressure_sealevel;temperature;humidity
48622;BME280;34421;48.944;9.460;2023-05-09T00:00:31;98769.41;;;15.35;76.50
48622;BME280;34421;48.944;9.460;2023-05-09T00:02:56;98773.03;;;15.29;76.90
48622;BME280;34421;48.944;9.460;2023-05-09T00:05:22;98768.59;;;15.23;76.54
48622;BME280;34421;48.944;9.460;2023-05-09T00:07:47;98768.69;;;15.16;76.89
48622;BME280;34421;48.944;9.460;2023-05-09T00:10:13;98770.22;;;15.12;77.20
48622;BME280;34421;48.944;9.460;2023-05-09T00:12:39;98764.72;;;15.07;77.32
48622;BME280;34421;48.944;9.460;2023-05-09T00:15:06;98772.06;;;15.00;77.59
48622;BME280;34421;48.944;9.460;2023-05-09T00:17:33;98759.34;;;14.95;77.36
48622;BME280;34421;48.944;9.460;2023-05-09T00:19:58;98762.97;;;14.89;77.00
48622;BME280;34421;48.944;9.460;2023-05-09T00:22:26;98765.28;;;14.86;77.06
48622;BME280;34421;48.944;9.460;2023-05-09T00:24:51;98763.06;;;14.82;77.21
48622;BME280;34421;48.944;9.460;2023-05-09T00:27:16;98765.63;;;14.77;77.27
48622;BME280;34421;48.944;9.460;2023-05-09T00:29:42;98760.72;;;14.74;77.41
48622;BME280;34421;48.944;9.460;2023-05-09T00:32:07;98757.91;;;14.69;77.11
48622;BME280;34421;48.944;9.460;2023-05-09T00:34:33;98755.94;;;14.65;76.90
48622;BME280;34421;48.944;9.460;2023-05-09T00:36:58;98754.75;;;14.61;76.81
48622;BME280;34421;48.944;9.460;2023-05-09T00:39:23;98752.16;;;14.54;76.94
48622;BME280;34421;48.944;9.460;2023-05-09T00:41:50;98749.91;;;14.51;77.43
48622;BME280;34421;48.944;9.460;2023-05-09T00:44:15;98742.31;;;14.48;77.14
48622;BME280;34421;48.944;9.460;2023-05-09T00:46:40;98745.47;;;14.45;77.45
48622;BME280;34421;48.944;9.460;2023-05-09T00:49:06;98737.88;;;14.42;78.17
48622;BME280;34421;48.944;9.460;2023-05-09T00:51:32;98734.63;;;14.40;77.84
48622;BME280;34421;48.944;9.460;2023-05-09T00:53:57;98732.38;;;14.36;78.59
48622;BME280;34421;48.944;9.460;2023-05-09T00:56:23;98729.16;;;14.34;78.18
48622;BME280;34421;48.944;9.460;2023-05-09T00:58:49;98725.88;;;14.32;78.43
48622;BME280;34421;48.944;9.460;2023-05-09T01:01:14;98721.56;;;14.31;78.03
48622;BME280;34421;48.944;9.460;2023-05-09T01:03:40;98715.25;;;14.26;79.03
48622;BME280;34421;48.944;9.460;2023-05-09T01:06:21;98708.69;;;14.22;78.75
48622;BME280;34421;48.944;9.460;2023-05-09T01:09:07;98708.44;;;14.11;78.40
48622;BME280;34421;48.944;9.460;2023-05-09T01:11:59;98715.84;;;13.98;78.78
48622;BME280;34421;48.944;9.460;2023-05-09T01:17:48;98705.75;;;13.81;78.33
48622;BME280;34421;48.944;9.460;2023-05-09T01:30:50;98710.69;;;13.66;79.04
48622;BME280;34421;48.944;9.460;2023-05-09T01:33:18;98715.69;;;13.62;79.19
48622;BME280;34421;48.944;9.460;2023-05-09T01:35:49;98718.13;;;13.64;78.70
48622;BME280;34421;48.944;9.460;2023-05-09T01:38:18;98721.03;;;13.62;79.50
48622;BME280;34421;48.944;9.460;2023-05-09T01:40:48;98716.25;;;13.64;79.32
48622;BME280;34421;48.944;9.460;2023-05-09T01:43:16;98709.63;;;13.67;79.19
48622;BME280;34421;48.944;9.460;2023-05-09T01:45:44;98718.03;;;13.71;79.24
48622;BME280;34421;48.944;9.460;2023-05-09T01:48:10;98714.34;;;13.72;78.52
48622;BME280;34421;48.944;9.460;2023-05-09T01:50:38;98710.81;;;13.71;78.82
48622;BME280;34421;48.944;9.460;2023-05-09T01:53:04;98707.31;;;13.71;78.65
48622;BME280;34421;48.944;9.460;2023-05-09T01:55:32;98708.97;;;13.72;78.48
48622;BME280;34421;48.944;9.460;2023-05-09T01:57:58;98701.53;;;13.74;79.49
48622;BME280;34421;48.944;9.460;2023-05-09T02:00:24;98710.97;;;13.76;79.38
48622;BME280;34421;48.944;9.460;2023-05-09T02:02:51;98701.66;;;13.79;80.15
48622;BME280;34421;48.944;9.460;2023-05-09T02:05:17;98704.94;;;13.81;79.98
48622;BME280;34421;48.944;9.460;2023-05-09T02:07:44;98702.47;;;13.79;80.12
48622;BME280;34421;48.944;9.460;2023-05-09T02:10:11;98695.97;;;13.75;80.60
48622;BME280;34421;48.944;9.460;2023-05-09T02:12:37;98697.44;;;13.71;81.13
48622;BME280;34421;48.944;9.460;2023-05-09T02:15:04;98697.88;;;13.68;81.35
48622;BME280;34421;48.944;9.460;2023-05-09T02:17:30;98699.53;;;13.69;81.22
48622;BME280;34421;48.944;9.460;2023-05-09T02:19:59;98692.97;;;13.65;81.53
48622;BME280;34421;48.944;9.460;2023-05-09T02:22:24;98694.28;;;13.62;80.91
48622;BME280;34421;48.944;9.460;2023-05-09T02:24:50;98683.78;;;13.61;81.30
48622;BME280;34421;48.944;9.460;2023-05-09T02:27:16;98691.66;;;13.56;81.19
48622;BME280;34421;48.944;9.460;2023-05-09T02:29:46;98695.81;;;13.52;81.52
48622;BME280;34421;48.944;9.460;2023-05-09T02:32:17;98694.66;;;13.48;81.54
48622;BME280;34421;48.944;9.460;2023-05-09T02:34:45;98696.13;;;13.43;81.54
48622;BME280;34421;48.944;9.460;2023-05-09T02:37:12;98692.63;;;13.43;81.27
48622;BME280;34421;48.944;9.460;2023-05-09T02:39:38;98697.38;;;13.41;80.82
48622;BME280;34421;48.944;9.460;2023-05-09T02:42:12;98701.31;;;13.38;80.73
48622;BME280;34421;48.944;9.460;2023-05-09T02:44:37;98702.34;;;13.37;80.57
48622;BME280;34421;48.944;9.460;2023-05-09T02:47:04;98698.63;;;13.38;80.45
48622;BME280;34421;48.944;9.460;2023-05-09T02:49:29;98699.69;;;13.37;80.02
48622;BME280;34421;48.944;9.460;2023-05-09T02:51:55;98690.41;;;13.40;80.67
48622;BME280;34421;48.944;9.460;2023-05-09T02:54:20;98683.34;;;13.45;80.17
48622;BME280;34421;48.944;9.460;2023-05-09T02:56:46;98684.53;;;13.50;80.16
48622;BME280;34421;48.944;9.460;2023-05-09T02:59:11;98678.16;;;13.51;79.98
48622;BME280;34421;48.944;9.460;2023-05-09T03:01:36;98676.50;;;13.50;80.01
48622;BME280;34421;48.944;9.460;2023-05-09T03:04:02;98670.13;;;13.51;80.07
48622;BME280;34421;48.944;9.460;2023-05-09T03:06:27;98670.94;;;13.51;79.87
48622;BME280;34421;48.944;9.460;2023-05-09T03:08:52;98671.16;;;13.50;79.25
48622;BME280;34421;48.944;9.460;2023-05-09T03:11:18;98664.19;;;13.49;79.74
48622;BME280;34421;48.944;9.460;2023-05-09T03:13:43;98662.31;;;13.49;79.27
48622;BME280;34421;48.944;9.460;2023-05-09T03:18:36;98664.19;;;13.49;79.77
48622;BME280;34421;48.944;9.460;2023-05-09T03:21:01;98663.13;;;13.50;79.16
48622;BME280;34421;48.944;9.460;2023-05-09T03:23:27;98662.09;;;13.51;79.78
48622;BME280;34421;48.944;9.460;2023-05-09T03:25:52;98653.03;;;13.52;79.94
48622;BME280;34421;48.944;9.460;2023-05-09T03:28:17;98657.13;;;13.54;80.04
48622;BME280;34421;48.944;9.460;2023-05-09T03:30:43;98658.53;;;13.57;79.60
48622;BME280;34421;48.944;9.460;2023-05-09T03:33:08;98648.63;;;13.57;80.46
48622;BME280;34421;48.944;9.460;2023-05-09T03:35:33;98655.84;;;13.57;79.90
48622;BME280;34421;48.944;9.460;2023-05-09T03:37:59;98651.31;;;13.57;80.53
48622;BME280;34421;48.944;9.460;2023-05-09T03:40:24;98641.63;;;13.56;80.32
48622;BME280;34421;48.944;9.460;2023-05-09T03:42:49;98643.28;;;13.57;80.44
48622;BME280;34421;48.944;9.460;2023-05-09T03:45:14;98637.94;;;13.57;80.52
48622;BME280;34421;48.944;9.460;2023-05-09T03:47:40;98643.66;;;13.61;80.64
48622;BME280;34421;48.944;9.460;2023-05-09T03:50:06;98649.97;;;13.66;80.88
48622;BME280;34421;48.944;9.460;2023-05-09T03:52:32;98643.34;;;13.69;80.40
48622;BME280;34421;48.944;9.460;2023-05-09T03:54:57;98633.00;;;13.73;80.57
48622;BME280;34421;48.944;9.460;2023-05-09T03:57:22;98632.78;;;13.74;80.41
48622;BME280;34421;48.944;9.460;2023-05-09T03:59:48;98638.13;;;13.74;80.44
48622;BME280;34421;48.944;9.460;2023-05-09T04:02:13;98633.16;;;13.78;79.74
48622;BME280;34421;48.944;9.460;2023-05-09T04:04:38;98637.44;;;13.79;80.32
48622;BME280;34421;48.944;9.460;2023-05-09T04:07:04;98636.38;;;13.80;79.81
48622;BME280;34421;48.944;9.460;2023-05-09T04:09:29;98641.75;;;13.80;80.28
48622;BME280;34421;48.944;9.460;2023-05-09T04:11:54;98642.69;;;13.85;79.94
48622;BME280;34421;48.944;9.460;2023-05-09T04:14:20;98641.44;;;13.88;80.18
48622;BME280;34421;48.944;9.460;2023-05-09T04:16:45;98643.06;;;13.89;79.86
48622;BME280;34421;48.944;9.460;2023-05-09T04:19:10;98645.06;;;13.94;79.89
48622;BME280;34421;48.944;9.460;2023-05-09T04:21:36;98649.28;;;14.01;79.23
48622;BME280;34421;48.944;9.460;2023-05-09T04:24:01;98645.09;;;14.05;79.83
48622;BME280;34421;48.944;9.460;2023-05-09T04:26:27;98644.44;;;14.10;79.85
48622;BME280;34421;48.944;9.460;2023-05-09T04:28:52;98644.53;;;14.15;79.23
48622;BME280;34421;48.944;9.460;2023-05-09T04:31:17;98646.69;;;14.25;79.00
48622;BME280;34421;48.944;9.460;2023-05-09T04:33:43;98651.47;;;14.34;79.05
48622;BME280;34421;48.944;9.460;2023-05-09T04:36:09;98644.94;;;14.42;79.18
48622;BME280;34421;48.944;9.460;2023-05-09T04:38:34;98648.09;;;14.51;78.92
48622;BME280;34421;48.944;9.460;2023-05-09T04:41:00;98658.50;;;14.59;78.82
48622;BME280;34421;48.944;9.460;2023-05-09T04:43:25;98649.88;;;14.69;79.28
48622;BME280;34421;48.944;9.460;2023-05-09T04:45:52;98646.06;;;14.76;78.59
48622;BME280;34421;48.944;9.460;2023-05-09T04:48:17;98649.56;;;14.89;78.40
48622;BME280;34421;48.944;9.460;2023-05-09T04:50:43;98651.06;;;14.96;78.03
48622;BME280;34421;48.944;9.460;2023-05-09T04:53:08;98650.13;;;15.02;77.86
48622;BME280;34421;48.944;9.460;2023-05-09T04:55:35;98656.44;;;15.08;78.14
48622;BME280;34421;48.944;9.460;2023-05-09T04:58:00;98658.38;;;15.13;77.17
48622;BME280;34421;48.944;9.460;2023-05-09T05:00:26;98653.97;;;15.18;77.13
48622;BME280;34421;48.944;9.460;2023-05-09T05:02:51;98657.78;;;15.22;77.61
48622;BME280;34421;48.944;9.460;2023-05-09T05:05:16;98657.44;;;15.31;77.54
48622;BME280;34421;48.944;9.460;2023-05-09T05:07:42;98656.59;;;15.42;77.11
48622;BME280;34421;48.944;9.460;2023-05-09T05:10:07;98648.84;;;15.57;76.91
48622;BME280;34421;48.944;9.460;2023-05-09T05:12:33;98650.81;;;15.74;76.38
48622;BME280;34421;48.944;9.460;2023-05-09T05:14:58;98656.56;;;15.94;75.55
48622;BME280;34421;48.944;9.460;2023-05-09T05:17:23;98651.56;;;16.14;75.49
48622;BME280;34421;48.944;9.460;2023-05-09T05:19:49;98652.88;;;16.29;75.18
48622;BME280;34421;48.944;9.460;2023-05-09T05:22:14;98653.06;;;16.39;74.72
48622;BME280;34421;48.944;9.460;2023-05-09T05:24:39;98656.41;;;16.46;74.03
48622;BME280;34421;48.944;9.460;2023-05-09T05:27:04;98654.84;;;16.50;73.82
48622;BME280;34421;48.944;9.460;2023-05-09T05:29:30;98652.50;;;16.54;73.82
48622;BME280;34421;48.944;9.460;2023-05-09T05:31:55;98654.34;;;16.53;73.41
48622;BME280;34421;48.944;9.460;2023-05-09T05:34:20;98646.38;;;16.58;72.88
48622;BME280;34421;48.944;9.460;2023-05-09T05:36:46;98645.97;;;16.67;72.51
48622;BME280;34421;48.944;9.460;2023-05-09T05:39:11;98645.34;;;16.76;72.41
48622;BME280;34421;48.944;9.460;2023-05-09T05:41:37;98643.63;;;16.87;71.39
48622;BME280;34421;48.944;9.460;2023-05-09T05:44:02;98634.00;;;16.91;70.80
48622;BME280;34421;48.944;9.460;2023-05-09T05:46:27;98634.16;;;17.01;70.74
48622;BME280;34421;48.944;9.460;2023-05-09T05:48:53;98633.19;;;17.13;70.44
48622;BME280;34421;48.944;9.460;2023-05-09T05:51:18;98630.66;;;17.23;69.91
48622;BME280;34421;48.944;9.460;2023-05-09T05:53:43;98633.78;;;17.37;70.01
48622;BME280;34421;48.944;9.460;2023-05-09T05:56:09;98622.38;;;17.51;69.62
48622;BME280;34421;48.944;9.460;2023-05-09T05:58:34;98623.69;;;17.71;68.89
48622;BME280;34421;48.944;9.460;2023-05-09T06:01:00;98620.72;;;17.94;68.62
48622;BME280;34421;48.944;9.460;2023-05-09T06:03:26;98618.00;;;18.21;68.88
48622;BME280;34421;48.944;9.460;2023-05-09T06:05:51;98611.19;;;18.46;67.83
48622;BME280;34421;48.944;9.460;2023-05-09T06:08:16;98611.34;;;18.66;66.69
48622;BME280;34421;48.944;9.460;2023-05-09T06:10:42;98602.13;;;19.00;65.22
48622;BME280;34421;48.944;9.460;2023-05-09T06:13:07;98603.06;;;19.26;62.84
48622;BME280;34421;48.944;9.460;2023-05-09T06:15:32;98602.66;;;19.59;61.56
48622;BME280;34421;48.944;9.460;2023-05-09T06:17:58;98599.25;;;19.95;59.46
48622;BME280;34421;48.944;9.460;2023-05-09T06:20:23;98603.03;;;20.19;59.36
48622;BME280;34421;48.944;9.460;2023-05-09T06:22:49;98592.53;;;20.23;57.85
48622;BME280;34421;48.944;9.460;2023-05-09T06:25:14;98585.19;;;20.34;56.83
48622;BME280;34421;48.944;9.460;2023-05-09T06:27:41;98589.53;;;20.40;57.12
48622;BME280;34421;48.944;9.460;2023-05-09T06:30:06;98589.00;;;20.63;55.93
48622;BME280;34421;48.944;9.460;2023-05-09T06:32:32;98585.16;;;20.90;55.16
48622;BME280;34421;48.944;9.460;2023-05-09T06:34:57;98589.66;;;21.20;54.28
48622;BME280;34421;48.944;9.460;2023-05-09T06:37:23;98584.88;;;21.67;53.29
48622;BME280;34421;48.944;9.460;2023-05-09T06:39:48;98587.13;;;22.33;52.54
48622;BME280;34421;48.944;9.460;2023-05-09T06:42:15;98577.88;;;23.16;50.64
48622;BME280;34421;48.944;9.460;2023-05-09T06:44:40;98578.06;;;23.87;48.40
48622;BME280;34421;48.944;9.460;2023-05-09T06:47:07;98568.59;;;25.38;44.81
48622;BME280;34421;48.944;9.460;2023-05-09T06:49:33;98566.94;;;27.91;40.48
48622;BME280;34421;48.944;9.460;2023-05-09T06:51:58;98563.41;;;30.91;33.40
48622;BME280;34421;48.944;9.460;2023-05-09T06:54:24;98560.34;;;30.59;32.89
48622;BME280;34421;48.944;9.460;2023-05-09T06:56:49;98555.72;;;31.21;32.42
48622;BME280;34421;48.944;9.460;2023-05-09T06:59:14;98553.78;;;33.54;29.86
48622;BME280;34421;48.944;9.460;2023-05-09T07:01:40;98545.84;;;36.05;26.91
48622;BME280;34421;48.944;9.460;2023-05-09T07:04:06;98541.03;;;37.32;24.80
48622;BME280;34421;48.944;9.460;2023-05-09T07:06:31;98535.59;;;38.84;23.13
48622;BME280;34421;48.944;9.460;2023-05-09T07:08:57;98531.72;;;40.20;21.52
48622;BME280;34421;48.944;9.460;2023-05-09T07:11:22;98528.81;;;41.31;20.33
48622;BME280;34421;48.944;9.460;2023-05-09T07:13:47;98529.94;;;42.06;19.11
48622;BME280;34421;48.944;9.460;2023-05-09T07:16:13;98528.06;;;42.26;18.31
48622;BME280;34421;48.944;9.460;2023-05-09T07:18:38;98526.94;;;41.93;18.53
48622;BME280;34421;48.944;9.460;2023-05-09T07:21:04;98521.06;;;41.12;18.91
48622;BME280;34421;48.944;9.460;2023-05-09T07:23:29;98525.69;;;38.97;20.63
48622;BME280;34421;48.944;9.460;2023-05-09T07:25:58;98528.41;;;36.83;21.77
48622;BME280;34421;48.944;9.460;2023-05-09T07:28:24;98537.56;;;34.96;23.41
48622;BME280;34421;48.944;9.460;2023-05-09T07:30:49;98542.38;;;33.75;24.63
48622;BME280;34421;48.944;9.460;2023-05-09T07:33:15;98542.03;;;33.06;25.69
48622;BME280;34421;48.944;9.460;2023-05-09T07:35:40;98532.19;;;32.92;25.73
48622;BME280;34421;48.944;9.460;2023-05-09T07:38:06;98528.97;;;33.22;25.53
48622;BME280;34421;48.944;9.460;2023-05-09T07:40:31;98516.44;;;34.41;24.38
48622;BME280;34421;48.944;9.460;2023-05-09T07:43:00;98507.34;;;34.60;23.98
48622;BME280;34421;48.944;9.460;2023-05-09T07:45:25;98505.28;;;33.53;24.76
48622;BME280;34421;48.944;9.460;2023-05-09T07:47:51;98508.56;;;32.91;25.58
48622;BME280;34421;48.944;9.460;2023-05-09T07:50:16;98492.38;;;32.42;25.45
48622;BME280;34421;48.944;9.460;2023-05-09T07:52:41;98485.22;;;32.10;26.33
48622;BME280;34421;48.944;9.460;2023-05-09T07:55:07;98493.84;;;31.80;26.71
48622;BME280;34421;48.944;9.460;2023-05-09T07:57:32;98483.16;;;31.38;27.29
48622;BME280;34421;48.944;9.460;2023-05-09T07:59:58;98474.69;;;31.31;28.24
48622;BME280;34421;48.944;9.460;2023-05-09T08:02:23;98479.16;;;31.48;27.70
48622;BME280;34421;48.944;9.460;2023-05-09T08:04:48;98472.66;;;31.96;26.12
48622;BME280;34421;48.944;9.460;2023-05-09T08:07:14;98464.19;;;31.89;26.29
48622;BME280;34421;48.944;9.460;2023-05-09T08:09:39;98464.41;;;31.68;25.86
48622;BME280;34421;48.944;9.460;2023-05-09T08:12:04;98455.38;;;32.43;25.55
48622;BME280;34421;48.944;9.460;2023-05-09T08:14:31;98444.56;;;36.12;22.50
48622;BME280;34421;48.944;9.460;2023-05-09T08:16:56;98430.53;;;39.42;19.40
48622;BME280;34421;48.944;9.460;2023-05-09T08:19:22;98430.56;;;41.40;17.17
48622;BME280;34421;48.944;9.460;2023-05-09T08:21:50;98421.03;;;42.22;16.18
48622;BME280;34421;48.944;9.460;2023-05-09T08:24:15;98426.66;;;42.46;15.85
48622;BME280;34421;48.944;9.460;2023-05-09T08:26:40;98428.69;;;41.91;16.49
48622;BME280;34421;48.944;9.460;2023-05-09T08:29:06;98426.72;;;41.88;16.34
48622;BME280;34421;48.944;9.460;2023-05-09T08:31:31;98423.41;;;41.70;16.39
48622;BME280;34421;48.944;9.460;2023-05-09T08:33:56;98412.72;;;43.09;15.56
48622;BME280;34421;48.944;9.460;2023-05-09T08:36:22;98408.59;;;43.90;14.68
48622;BME280;34421;48.944;9.460;2023-05-09T08:38:47;98398.06;;;43.61;14.95
48622;BME280;34421;48.944;9.460;2023-05-09T08:41:13;98400.50;;;42.99;15.39
48622;BME280;34421;48.944;9.460;2023-05-09T08:43:39;98407.03;;;41.07;16.32
48622;BME280;34421;48.944;9.460;2023-05-09T08:46:09;98410.94;;;41.43;16.36
48622;BME280;34421;48.944;9.460;2023-05-09T08:48:35;98400.13;;;42.07;16.13
48622;BME280;34421;48.944;9.460;2023-05-09T08:51:04;98395.00;;;43.56;14.58
48622;BME280;34421;48.944;9.460;2023-05-09T08:53:30;98384.47;;;44.45;13.73
48622;BME280;34421;48.944;9.460;2023-05-09T08:55:58;98377.81;;;45.27;13.55
48622;BME280;34421;48.944;9.460;2023-05-09T08:58:24;98380.03;;;45.74;12.99
48622;BME280;34421;48.944;9.460;2023-05-09T09:00:49;98367.75;;;45.80;13.15
48622;BME280;34421;48.944;9.460;2023-05-09T09:03:16;98360.97;;;46.29;12.93
48622;BME280;34421;48.944;9.460;2023-05-09T09:05:42;98360.53;;;45.41;13.41
48622;BME280;34421;48.944;9.460;2023-05-09T09:08:09;98362.31;;;45.35;13.47
48622;BME280;34421;48.944;9.460;2023-05-09T09:10:38;98356.47;;;46.19;12.95
48622;BME280;34421;48.944;9.460;2023-05-09T09:13:04;98350.09;;;46.53;12.48
48622;BME280;34421;48.944;9.460;2023-05-09T09:15:35;98348.69;;;46.92;12.26
48622;BME280;34421;48.944;9.460;2023-05-09T09:18:09;98347.69;;;47.30;11.90
48622;BME280;34421;48.944;9.460;2023-05-09T09:20:40;98349.69;;;47.52;11.80
48622;BME280;34421;48.944;9.460;2023-05-09T09:23:08;98334.31;;;47.84;11.47
48622;BME280;34421;48.944;9.460;2023-05-09T09:25:36;98332.44;;;47.90;11.51
48622;BME280;34421;48.944;9.460;2023-05-09T09:28:02;98328.06;;;47.26;11.44
48622;BME280;34421;48.944;9.460;2023-05-09T09:30:28;98324.75;;;47.19;11.52
48622;BME280;34421;48.944;9.460;2023-05-09T09:32:53;98324.19;;;47.33;11.48
48622;BME280;34421;48.944;9.460;2023-05-09T09:35:19;98320.28;;;47.31;11.71
48622;BME280;34421;48.944;9.460;2023-05-09T09:37:44;98311.19;;;47.67;11.79
48622;BME280;34421;48.944;9.460;2023-05-09T09:40:11;98325.31;;;46.83;12.32
48622;BME280;34421;48.944;9.460;2023-05-09T09:42:44;98320.06;;;44.54;13.62
48622;BME280;34421;48.944;9.460;2023-05-09T09:45:14;98317.38;;;42.76;14.36
48622;BME280;34421;48.944;9.460;2023-05-09T09:47:42;98307.66;;;43.57;13.82
48622;BME280;34421;48.944;9.460;2023-05-09T09:50:20;98303.88;;;44.58;13.50
48622;BME280;34421;48.944;9.460;2023-05-09T09:52:53;98296.16;;;44.63;13.10
48622;BME280;34421;48.944;9.460;2023-05-09T09:55:23;98296.66;;;42.70;14.29
48622;BME280;34421;48.944;9.460;2023-05-09T09:57:49;98298.53;;;41.36;15.17
48622;BME280;34421;48.944;9.460;2023-05-09T10:00:19;98295.66;;;40.78;15.59
48622;BME280;34421;48.944;9.460;2023-05-09T10:05:25;98291.41;;;39.80;17.18
48622;BME280;34421;48.944;9.460;2023-05-09T10:08:02;98288.84;;;38.56;17.93
48622;BME280;34421;48.944;9.460;2023-05-09T10:10:29;98288.91;;;37.88;18.92
48622;BME280;34421;48.944;9.460;2023-05-09T10:12:57;98278.19;;;37.58;19.19
48622;BME280;34421;48.944;9.460;2023-05-09T10:15:23;98278.16;;;37.65;19.52
48622;BME280;34421;48.944;9.460;2023-05-09T10:17:53;98271.44;;;37.80;19.33
48622;BME280;34421;48.944;9.460;2023-05-09T10:20:20;98269.06;;;37.82;19.49
48622;BME280;34421;48.944;9.460;2023-05-09T10:22:47;98263.13;;;38.05;19.27
48622;BME280;34421;48.944;9.460;2023-05-09T10:25:16;98250.16;;;40.09;17.68
48622;BME280;34421;48.944;9.460;2023-05-09T10:27:44;98244.44;;;41.22;16.40
48622;BME280;34421;48.944;9.460;2023-05-09T10:30:21;98245.44;;;40.78;16.93
48622;BME280;34421;48.944;9.460;2023-05-09T10:32:47;98248.41;;;40.26;17.43
48622;BME280;34421;48.944;9.460;2023-05-09T10:35:17;98238.59;;;40.48;17.56
48622;BME280;34421;48.944;9.460;2023-05-09T10:37:46;98235.78;;;41.40;16.24
48622;BME280;34421;48.944;9.460;2023-05-09T10:40:12;98229.41;;;42.14;15.66
48622;BME280;34421;48.944;9.460;2023-05-09T10:42:41;98229.00;;;41.92;15.64
48622;BME280;34421;48.944;9.460;2023-05-09T10:45:08;98217.06;;;41.88;15.54
48622;BME280;34421;48.944;9.460;2023-05-09T10:47:34;98209.25;;;42.23;15.21
48622;BME280;34421;48.944;9.460;2023-05-09T10:50:00;98211.97;;;42.06;14.94
48622;BME280;34421;48.944;9.460;2023-05-09T10:52:30;98212.53;;;41.51;15.68
48622;BME280;34421;48.944;9.460;2023-05-09T10:55:00;98200.13;;;41.25;15.63
48622;BME280;34421;48.944;9.460;2023-05-09T10:57:30;98197.38;;;40.94;16.04
48622;BME280;34421;48.944;9.460;2023-05-09T10:59:56;98193.88;;;40.86;15.86
48622;BME280;34421;48.944;9.460;2023-05-09T11:02:22;98185.78;;;40.34;16.57
48622;BME280;34421;48.944;9.460;2023-05-09T11:05:16;98184.00;;;40.13;16.83
48622;BME280;34421;48.944;9.460;2023-05-09T11:07:41;98180.44;;;39.68;17.13
48622;BME280;34421;48.944;9.460;2023-05-09T11:10:17;98180.09;;;39.10;17.33
48622;BME280;34421;48.944;9.460;2023-05-09T11:12:53;98171.16;;;38.73;18.06
48622;BME280;34421;48.944;9.460;2023-05-09T11:15:19;98157.38;;;38.45;17.89
48622;BME280;34421;48.944;9.460;2023-05-09T11:17:49;98172.25;;;37.52;18.55
48622;BME280;34421;48.944;9.460;2023-05-09T11:20:15;98166.16;;;36.68;20.23
48622;BME280;34421;48.944;9.460;2023-05-09T11:22:42;98161.69;;;35.76;20.79
48622;BME280;34421;48.944;9.460;2023-05-09T11:25:12;98159.44;;;35.00;21.23
48622;BME280;34421;48.944;9.460;2023-05-09T11:30:07;98147.97;;;34.60;22.39
48622;BME280;34421;48.944;9.460;2023-05-09T11:32:44;98145.97;;;34.27;22.67
48622;BME280;34421;48.944;9.460;2023-05-09T11:35:11;98147.88;;;33.96;23.73
48622;BME280;34421;48.944;9.460;2023-05-09T11:40:16;98133.97;;;33.13;23.40
48622;BME280;34421;48.944;9.460;2023-05-09T11:42:44;98133.94;;;32.90;24.29
48622;BME280;34421;48.944;9.460;2023-05-09T11:45:11;98128.97;;;32.57;24.56
48622;BME280;34421;48.944;9.460;2023-05-09T11:47:37;98120.06;;;32.63;25.18
48622;BME280;34421;48.944;9.460;2023-05-09T11:50:05;98120.28;;;32.55;25.58
48622;BME280;34421;48.944;9.460;2023-05-09T11:52:31;98116.44;;;32.20;26.08
48622;BME280;34421;48.944;9.460;2023-05-09T11:54:58;98109.56;;;32.11;26.37
48622;BME280;34421;48.944;9.460;2023-05-09T11:57:23;98104.31;;;32.06;26.02
48622;BME280;34421;48.944;9.460;2023-05-09T11:59:49;98103.03;;;31.84;26.35
48622;BME280;34421;48.944;9.460;2023-05-09T12:02:14;98102.06;;;31.41;26.91
48622;BME280;34421;48.944;9.460;2023-05-09T12:04:40;98097.53;;;31.48;26.81
48622;BME280;34421;48.944;9.460;2023-05-09T12:07:05;98087.38;;;31.68;26.83
48622;BME280;34421;48.944;9.460;2023-05-09T12:09:32;98083.19;;;31.74;26.40
48622;BME280;34421;48.944;9.460;2023-05-09T12:12:01;98084.69;;;31.37;26.86
48622;BME280;34421;48.944;9.460;2023-05-09T12:14:33;98081.69;;;30.94;26.69
48622;BME280;34421;48.944;9.460;2023-05-09T12:16:59;98087.34;;;30.57;28.07
48622;BME280;34421;48.944;9.460;2023-05-09T12:19:25;98077.34;;;30.49;28.49
48622;BME280;34421;48.944;9.460;2023-05-09T12:24:20;98076.22;;;30.10;28.81
48622;BME280;34421;48.944;9.460;2023-05-09T12:26:47;98061.84;;;30.01;29.00
48622;BME280;34421;48.944;9.460;2023-05-09T12:29:12;98063.41;;;29.73;29.63
48622;BME280;34421;48.944;9.460;2023-05-09T12:31:40;98048.13;;;29.48;29.34
48622;BME280;34421;48.944;9.460;2023-05-09T12:34:05;98051.75;;;29.52;29.27
48622;BME280;34421;48.944;9.460;2023-05-09T12:36:33;98044.00;;;29.42;29.44
48622;BME280;34421;48.944;9.460;2023-05-09T12:38:59;98047.44;;;29.51;29.61
48622;BME280;34421;48.944;9.460;2023-05-09T12:41:24;98041.03;;;29.47;29.78
48622;BME280;34421;48.944;9.460;2023-05-09T12:43:50;98041.34;;;29.58;29.89
48622;BME280;34421;48.944;9.460;2023-05-09T12:46:20;98037.09;;;29.85;29.78
48622;BME280;34421;48.944;9.460;2023-05-09T12:48:46;98032.34;;;29.69;29.75
48622;BME280;34421;48.944;9.460;2023-05-09T12:51:20;98023.41;;;29.60;29.58
48622;BME280;34421;48.944;9.460;2023-05-09T12:53:45;98031.63;;;29.72;29.43
48622;BME280;34421;48.944;9.460;2023-05-09T12:56:16;98023.63;;;29.67;29.73
48622;BME280;34421;48.944;9.460;2023-05-09T12:58:54;98012.91;;;29.62;29.36
48622;BME280;34421;48.944;9.460;2023-05-09T13:01:22;98008.25;;;29.26;29.60
48622;BME280;34421;48.944;9.460;2023-05-09T13:04:05;98014.09;;;29.24;29.54
48622;BME280;34421;48.944;9.460;2023-05-09T13:06:31;98007.38;;;29.22;30.12
48622;BME280;34421;48.944;9.460;2023-05-09T13:08:58;98005.84;;;29.00;29.81
48622;BME280;34421;48.944;9.460;2023-05-09T13:11:25;97998.09;;;28.77;30.82
48622;BME280;34421;48.944;9.460;2023-05-09T13:13:50;97996.38;;;28.73;31.55
48622;BME280;34421;48.944;9.460;2023-05-09T13:16:16;97994.88;;;28.51;31.38
48622;BME280;34421;48.944;9.460;2023-05-09T13:18:41;97992.16;;;28.63;30.71
48622;BME280;34421;48.944;9.460;2023-05-09T13:21:06;97989.09;;;28.77;30.56
48622;BME280;34421;48.944;9.460;2023-05-09T13:23:32;97980.03;;;28.76;31.41